Decoded Metar for YBAS (ALICE SPRINGS in AUSTRALIA) (IATA:ASP) | Meteo·Mobile Aviation Weather
aviador You're here:

YBAS Decoded Metar

ALICE SPRINGS in AUSTRALIA
Report Time2018-10-23 23:00:00
UTC Time2018-10-23 23:38:46
Flight Rules vfr VFR
Wind110° at 11 kt
W.Decomp.*RWY 12: 10.6 kt HW 2.8 kt LCW
RWY 17: 4.6 kt HW 10 kt LCW
W.Rank110° ranks 2
Current wind is above 110° avg. (8.6)
Visibility9999 m
Phenomena:N/A
Clouds:N/A
Expected CloudBase > 10,000 ft AGL from Temp-Dew spread
Ceiling14,500 ft
Temp25°C (ISA +14)
Dew Point00°C (19% RH)
AAT19.0°C
QNH1017 hPa
Density Alt3,291 ft
Elevation1,775 ft
Report Wrong Elevation
Raw Report
YBAS 232300Z 11011KT CAVOK 25/00 Q1017 BKN145=

Extra information for YBAS:More info

Metar Taf Metar & Taf Last 4 Metars F.Rules Stats Wind Profile Meteogram Temp Stats Airport Information Weather charts Add Link Nearby VenuesMetar ALERT Operation Metar Decoded Social comments